Time;durP1;ratioP1;P1;durP2;ratioP2;P2;SDS_P1;SDS_P2;PMS_P1;PMS_P2;Temp;Humidity;BMP_temperature;BMP_pressure;BME280_temperature;BME280_humidity;BME280_pressure;Samples;Min_cycle;Max_cycle;Signal;HPM_P1;HPM_P2
2022/11/19 00:01:48;;;;;;;5.88;4.38;;;;;;;;;;5062811;28;20475;-71
2022/11/19 00:04:14;;;;;;;6.28;4.40;;;;;;;;;;5069121;28;20574;-71
2022/11/19 00:06:40;;;;;;;6.87;4.30;;;;;;;;;;5048713;28;20432;-71
2022/11/19 00:09:09;;;;;;;6.47;4.53;;;;;;;;;;5046308;28;20457;-72
2022/11/19 00:14:23;;;;;;;6.67;4.73;;;;;;;;;;5061704;28;20933;-72
2022/11/19 00:16:49;;;;;;;5.50;4.00;;;;;;;;;;5039749;28;20457;-72
2022/11/19 00:19:15;;;;;;;6.32;4.25;;;;;;;;;;5055334;28;20421;-72
2022/11/19 00:21:41;;;;;;;5.53;4.15;;;;;;;;;;5039928;28;20428;-72
2022/11/19 00:24:07;;;;;;;7.03;4.60;;;;;;;;;;5059235;28;20427;-72
2022/11/19 00:26:33;;;;;;;5.47;4.00;;;;;;;;;;5056622;28;20425;-72
2022/11/19 00:28:59;;;;;;;5.38;3.88;;;;;;;;;;5061071;28;20483;-72
2022/11/19 00:31:26;;;;;;;5.45;4.00;;;;;;;;;;5046959;28;20459;-72
2022/11/19 00:33:54;;;;;;;6.20;4.10;;;;;;;;;;5062632;28;20447;-72
2022/11/19 00:36:21;;;;;;;5.85;4.15;;;;;;;;;;5051579;28;20433;-72
2022/11/19 00:38:47;;;;;;;6.45;4.18;;;;;;;;;;5062730;28;20428;-72
2022/11/19 00:41:13;;;;;;;5.85;4.10;;;;;;;;;;5055916;28;20760;-72
2022/11/19 00:43:51;;;;;;;5.53;3.90;;;;;;;;;;5041148;28;20782;-72
2022/11/19 00:46:21;;;;;;;5.72;4.15;;;;;;;;;;5053077;28;20500;-73
2022/11/19 00:48:48;;;;;;;6.85;4.70;;;;;;;;;;5060679;28;20417;-72
2022/11/19 00:51:14;;;;;;;5.60;4.35;;;;;;;;;;5064694;28;20455;-72
2022/11/19 00:53:40;;;;;;;5.40;4.00;;;;;;;;;;5064798;28;20432;-73
2022/11/19 00:56:08;;;;;;;6.28;4.25;;;;;;;;;;5063386;28;21107;-72
2022/11/19 00:58:34;;;;;;;6.13;4.20;;;;;;;;;;5058780;28;20422;-72
2022/11/19 01:01:00;;;;;;;6.23;4.27;;;;;;;;;;5062320;28;21019;-72
2022/11/19 01:03:26;;;;;;;6.28;4.57;;;;;;;;;;5041967;28;20428;-72
2022/11/19 01:05:52;;;;;;;6.20;4.60;;;;;;;;;;5033894;28;20487;-72
2022/11/19 01:08:19;;;;;;;6.28;4.47;;;;;;;;;;5035774;28;20454;-73
2022/11/19 01:10:45;;;;;;;6.28;4.55;;;;;;;;;;5060352;28;20991;-72
2022/11/19 01:15:56;;;;;;;6.30;4.18;;;;;;;;;;5054021;28;20494;-73
2022/11/19 01:18:22;;;;;;;6.63;4.82;;;;;;;;;;5066139;28;20420;-72
2022/11/19 01:20:48;;;;;;;7.40;4.72;;;;;;;;;;5064312;28;20403;-73
2022/11/19 01:23:14;;;;;;;6.00;4.20;;;;;;;;;;5060509;28;20796;-73
2022/11/19 01:25:40;;;;;;;6.57;4.28;;;;;;;;;;5047015;28;20441;-72
2022/11/19 01:28:06;;;;;;;6.43;4.50;;;;;;;;;;5040947;28;20420;-72
2022/11/19 01:30:33;;;;;;;6.38;4.55;;;;;;;;;;5040829;28;20435;-73
2022/11/19 01:32:59;;;;;;;6.50;4.40;;;;;;;;;;5044525;28;20488;-73
2022/11/19 01:35:25;;;;;;;7.22;4.63;;;;;;;;;;5060561;28;20970;-73
2022/11/19 01:37:51;;;;;;;6.70;4.53;;;;;;;;;;5081051;28;20455;-72
2022/11/19 01:40:18;;;;;;;8.93;5.30;;;;;;;;;;5056687;28;20405;-72
2022/11/19 01:42:50;;;;;;;7.00;4.63;;;;;;;;;;5077100;28;20410;-72
2022/11/19 01:45:26;;;;;;;6.47;4.55;;;;;;;;;;5048317;28;20916;-80
2022/11/19 01:47:53;;;;;;;7.53;5.10;;;;;;;;;;5075572;28;20472;-79
2022/11/19 01:50:19;;;;;;;7.07;5.13;;;;;;;;;;5083646;28;20405;-79
2022/11/19 01:52:46;;;;;;;7.07;5.00;;;;;;;;;;5072198;28;20441;-78
2022/11/19 01:55:12;;;;;;;7.18;5.10;;;;;;;;;;5086646;28;20794;-78
2022/11/19 01:57:39;;;;;;;6.55;5.35;;;;;;;;;;5084451;28;20426;-78
2022/11/19 02:00:06;;;;;;;7.13;5.32;;;;;;;;;;5085052;28;20421;-79
2022/11/19 02:02:35;;;;;;;7.47;5.00;;;;;;;;;;5062244;28;20414;-79
2022/11/19 02:05:02;;;;;;;9.02;5.18;;;;;;;;;;5071926;28;20819;-78
2022/11/19 02:07:31;;;;;;;6.80;5.00;;;;;;;;;;5085056;28;20507;-79
2022/11/19 02:09:59;;;;;;;7.25;5.20;;;;;;;;;;5098944;27;20892;-78
2022/11/19 02:12:39;;;;;;;6.93;4.85;;;;;;;;;;5090650;28;20519;-79
2022/11/19 02:15:12;;;;;;;7.32;4.78;;;;;;;;;;5082232;28;20496;-79
2022/11/19 02:17:56;;;;;;;6.90;4.97;;;;;;;;;;5080380;28;20457;-79
2022/11/19 02:20:41;;;;;;;6.57;5.00;;;;;;;;;;5067079;28;20419;-78
2022/11/19 02:23:26;;;;;;;7.43;5.20;;;;;;;;;;5080981;28;20497;-79
2022/11/19 02:26:01;;;;;;;7.13;4.50;;;;;;;;;;5094660;28;20444;-78
2022/11/19 02:28:33;;;;;;;6.82;5.07;;;;;;;;;;5078482;28;20769;-79
2022/11/19 02:31:08;;;;;;;6.80;4.80;;;;;;;;;;5095446;28;20423;-79
2022/11/19 02:33:35;;;;;;;8.77;5.13;;;;;;;;;;5077815;28;20453;-79
2022/11/19 02:36:27;;;;;;;7.13;5.40;;;;;;;;;;5079461;28;20435;-78
2022/11/19 02:39:08;;;;;;;6.67;4.87;;;;;;;;;;5074409;28;20418;-78
2022/11/19 02:41:55;;;;;;;7.07;5.13;;;;;;;;;;5092466;28;20420;-78
2022/11/19 02:47:18;;;;;;;7.35;5.10;;;;;;;;;;5083270;28;20974;-79
2022/11/19 02:49:44;;;;;;;8.40;4.93;;;;;;;;;;5080426;28;20424;-78
2022/11/19 02:52:11;;;;;;;7.03;4.82;;;;;;;;;;5070978;28;20781;-78
2022/11/19 02:54:37;;;;;;;7.05;4.80;;;;;;;;;;5065295;28;20418;-78
2022/11/19 02:57:04;;;;;;;7.55;4.32;;;;;;;;;;5108580;28;20503;-78
2022/11/19 03:05:01;;;;;;;6.85;4.55;;;;;;;;;;5085052;28;20425;-79
2022/11/19 03:07:27;;;;;;;6.70;4.65;;;;;;;;;;5078938;28;20432;-79
2022/11/19 03:09:59;;;;;;;6.75;4.88;;;;;;;;;;5087333;28;20428;-79
2022/11/19 03:12:33;;;;;;;7.15;4.88;;;;;;;;;;5083245;28;20420;-79
2022/11/19 03:18:04;;;;;;;7.28;4.57;;;;;;;;;;5083708;28;20422;-80
2022/11/19 03:20:52;;;;;;;7.00;4.78;;;;;;;;;;5083096;28;20885;-79
2022/11/19 03:23:21;;;;;;;6.60;4.80;;;;;;;;;;5075358;28;20406;-79
2022/11/19 03:26:14;;;;;;;6.55;4.70;;;;;;;;;;5082218;28;20425;-78
2022/11/19 03:28:40;;;;;;;6.97;4.70;;;;;;;;;;5051602;28;20501;-78
2022/11/19 03:31:06;;;;;;;6.95;4.85;;;;;;;;;;5070862;28;20762;-79
2022/11/19 03:33:44;;;;;;;6.65;4.53;;;;;;;;;;5083703;28;20429;-80
2022/11/19 03:36:12;;;;;;;7.32;5.00;;;;;;;;;;5074201;28;20503;-78
2022/11/19 03:38:50;;;;;;;7.35;4.85;;;;;;;;;;5090168;28;20425;-78
2022/11/19 03:41:17;;;;;;;8.30;5.40;;;;;;;;;;5082921;28;20424;-78
2022/11/19 03:43:46;;;;;;;8.68;5.30;;;;;;;;;;5083369;27;20398;-79
2022/11/19 03:46:14;;;;;;;7.78;4.93;;;;;;;;;;5120211;27;20406;-78
2022/11/19 03:48:42;;;;;;;6.57;4.80;;;;;;;;;;5088842;27;20445;-79
2022/11/19 03:51:12;;;;;;;9.07;5.00;;;;;;;;;;5101725;28;20424;-79
2022/11/19 03:53:38;;;;;;;7.35;5.03;;;;;;;;;;5089535;28;20550;-78
2022/11/19 03:56:06;;;;;;;7.47;4.97;;;;;;;;;;5084298;28;20466;-80
2022/11/19 03:58:37;;;;;;;7.32;5.10;;;;;;;;;;5088410;28;20414;-79
2022/11/19 04:01:03;;;;;;;7.22;5.00;;;;;;;;;;5093527;28;20930;-79
2022/11/19 04:03:29;;;;;;;7.10;4.95;;;;;;;;;;5082234;28;20518;-78
2022/11/19 04:05:57;;;;;;;7.80;5.53;;;;;;;;;;5086133;28;20533;-78
2022/11/19 04:08:23;;;;;;;7.53;5.40;;;;;;;;;;5091585;28;20424;-78
2022/11/19 04:10:49;;;;;;;8.63;5.63;;;;;;;;;;5071031;28;20426;-79
2022/11/19 04:13:15;;;;;;;9.02;5.85;;;;;;;;;;5080675;28;20499;-78
2022/11/19 04:15:41;;;;;;;7.72;5.25;;;;;;;;;;5075616;28;20417;-79
2022/11/19 04:18:07;;;;;;;7.25;5.40;;;;;;;;;;5089181;28;20750;-78
2022/11/19 04:20:33;;;;;;;8.68;5.72;;;;;;;;;;5089739;28;20400;-77
2022/11/19 04:22:59;;;;;;;8.02;5.28;;;;;;;;;;5086043;28;20400;-78
2022/11/19 04:25:25;;;;;;;8.48;5.80;;;;;;;;;;5089627;28;21018;-79
2022/11/19 04:27:51;;;;;;;8.73;5.70;;;;;;;;;;5070646;28;20427;-79
2022/11/19 04:30:18;;;;;;;8.10;5.53;;;;;;;;;;5091194;28;20924;-77
2022/11/19 04:32:44;;;;;;;8.00;5.50;;;;;;;;;;5080964;28;20416;-77
2022/11/19 04:35:10;;;;;;;8.18;5.30;;;;;;;;;;5086393;28;20417;-78
2022/11/19 04:37:36;;;;;;;8.75;5.78;;;;;;;;;;5064759;28;20428;-78
2022/11/19 04:40:03;;;;;;;7.72;5.35;;;;;;;;;;5061718;28;20450;-79
2022/11/19 04:42:29;;;;;;;7.72;5.38;;;;;;;;;;5063152;28;20572;-78
2022/11/19 04:44:55;;;;;;;7.80;5.05;;;;;;;;;;5064656;28;20812;-76
2022/11/19 04:47:21;;;;;;;8.75;5.80;;;;;;;;;;5036415;28;20925;-77
2022/11/19 04:49:47;;;;;;;8.18;5.10;;;;;;;;;;5050052;28;20559;-77
2022/11/19 04:52:13;;;;;;;7.75;5.85;;;;;;;;;;5053550;28;20420;-77
2022/11/19 04:54:39;;;;;;;8.32;5.57;;;;;;;;;;5050608;28;20417;-77
2022/11/19 04:57:05;;;;;;;8.23;5.97;;;;;;;;;;5044455;28;20947;-77
2022/11/19 04:59:31;;;;;;;8.43;5.63;;;;;;;;;;5054219;28;20958;-78
2022/11/19 05:01:57;;;;;;;9.02;6.13;;;;;;;;;;5064542;28;20498;-77
2022/11/19 05:04:23;;;;;;;7.88;5.63;;;;;;;;;;5037924;28;20701;-77
2022/11/19 05:06:49;;;;;;;8.88;6.03;;;;;;;;;;5047874;28;20428;-77
2022/11/19 05:09:15;;;;;;;8.32;5.85;;;;;;;;;;5063317;28;20420;-77
2022/11/19 05:11:41;;;;;;;9.73;6.13;;;;;;;;;;5059467;28;20498;-77
2022/11/19 05:14:07;;;;;;;8.95;5.88;;;;;;;;;;5042845;28;20429;-77
2022/11/19 05:16:34;;;;;;;10.70;6.53;;;;;;;;;;5064055;28;21040;-78
2022/11/19 05:19:00;;;;;;;8.57;5.82;;;;;;;;;;5049790;28;20416;-77
2022/11/19 05:21:26;;;;;;;10.10;6.60;;;;;;;;;;5054559;28;20500;-78
2022/11/19 05:23:52;;;;;;;9.40;6.18;;;;;;;;;;5025583;28;20516;-77
2022/11/19 05:26:18;;;;;;;10.05;5.97;;;;;;;;;;5047156;28;20428;-77
2022/11/19 05:28:45;;;;;;;9.27;6.30;;;;;;;;;;5060426;28;20420;-77
2022/11/19 05:31:11;;;;;;;10.30;6.45;;;;;;;;;;5033393;28;20467;-77
2022/11/19 05:33:37;;;;;;;8.77;6.25;;;;;;;;;;5051841;28;20519;-77
2022/11/19 05:36:03;;;;;;;8.93;6.32;;;;;;;;;;5053991;28;20503;-76
2022/11/19 05:38:29;;;;;;;8.85;5.60;;;;;;;;;;5088798;28;20416;-76
2022/11/19 05:40:55;;;;;;;8.88;6.40;;;;;;;;;;5092599;28;20457;-77
2022/11/19 05:43:21;;;;;;;8.82;6.18;;;;;;;;;;5082250;28;20468;-76
2022/11/19 05:45:47;;;;;;;9.55;6.68;;;;;;;;;;5077363;28;20474;-76
2022/11/19 05:48:13;;;;;;;9.60;6.30;;;;;;;;;;5085257;28;20416;-76
2022/11/19 05:50:41;;;;;;;9.13;5.93;;;;;;;;;;5087189;28;20392;-77
2022/11/19 05:53:07;;;;;;;10.52;6.55;;;;;;;;;;5103542;28;20885;-78
2022/11/19 05:55:33;;;;;;;10.05;6.57;;;;;;;;;;5092153;28;20401;-76
2022/11/19 05:57:59;;;;;;;10.90;6.43;;;;;;;;;;5081149;28;20509;-78
2022/11/19 06:00:25;;;;;;;10.75;7.35;;;;;;;;;;5074383;28;20421;-77
2022/11/19 06:02:51;;;;;;;9.70;6.53;;;;;;;;;;5080240;28;20943;-77
2022/11/19 06:05:17;;;;;;;10.25;7.13;;;;;;;;;;5068863;28;20429;-77
2022/11/19 06:07:43;;;;;;;17.08;9.98;;;;;;;;;;5087107;28;20415;-77
2022/11/19 06:10:10;;;;;;;12.10;8.40;;;;;;;;;;5102595;28;20927;-78
2022/11/19 06:12:36;;;;;;;9.88;7.70;;;;;;;;;;5073547;28;20418;-77
2022/11/19 06:15:05;;;;;;;10.77;7.30;;;;;;;;;;5103167;28;20503;-79
2022/11/19 06:17:32;;;;;;;10.35;7.28;;;;;;;;;;5065014;28;20410;-79
2022/11/19 06:19:59;;;;;;;10.20;6.80;;;;;;;;;;5056887;28;20426;-78
2022/11/19 06:22:25;;;;;;;10.90;6.68;;;;;;;;;;5066383;28;20421;-78
2022/11/19 06:24:51;;;;;;;9.77;6.80;;;;;;;;;;5081684;28;20412;-78
2022/11/19 06:27:17;;;;;;;9.15;6.47;;;;;;;;;;5074057;28;20407;-79
2022/11/19 06:29:43;;;;;;;13.43;7.30;;;;;;;;;;5078800;28;20416;-78
2022/11/19 06:32:09;;;;;;;10.00;6.80;;;;;;;;;;5085430;28;20423;-79
2022/11/19 06:34:35;;;;;;;11.60;7.13;;;;;;;;;;5086090;28;20935;-78
2022/11/19 06:37:03;;;;;;;9.40;6.82;;;;;;;;;;5066114;28;20422;-77
2022/11/19 06:39:29;;;;;;;10.52;7.03;;;;;;;;;;5088000;28;20777;-77
2022/11/19 06:42:34;;;;;;;11.60;7.18;;;;;;;;;;5110057;28;20442;-77
2022/11/19 06:44:41;;;;;;;11.18;7.30;;;;;;;;;;5086679;28;20474;-77
2022/11/19 06:47:07;;;;;;;11.45;7.60;;;;;;;;;;5046527;28;20462;-78
2022/11/19 06:49:34;;;;;;;10.57;7.30;;;;;;;;;;5081950;28;20441;-78
2022/11/19 06:52:00;;;;;;;11.50;8.20;;;;;;;;;;5084370;28;20421;-78
2022/11/19 06:54:26;;;;;;;10.93;7.75;;;;;;;;;;5060906;28;20425;-78
2022/11/19 06:56:52;;;;;;;10.40;6.95;;;;;;;;;;5086574;27;20421;-79
2022/11/19 06:59:18;;;;;;;10.20;6.82;;;;;;;;;;5097770;28;20730;-79
2022/11/19 07:01:44;;;;;;;12.55;6.97;;;;;;;;;;5089123;28;20408;-78
2022/11/19 07:04:10;;;;;;;9.43;6.68;;;;;;;;;;5084317;28;20818;-78
2022/11/19 07:06:36;;;;;;;10.38;7.30;;;;;;;;;;5087698;28;20574;-77
2022/11/19 07:09:02;;;;;;;10.80;7.43;;;;;;;;;;5087940;28;20431;-78
2022/11/19 07:11:29;;;;;;;11.02;6.75;;;;;;;;;;5083392;28;20915;-77
2022/11/19 07:13:57;;;;;;;10.65;7.55;;;;;;;;;;5065154;28;20565;-77
2022/11/19 07:16:24;;;;;;;10.95;7.70;;;;;;;;;;5095255;28;20420;-78
2022/11/19 07:18:50;;;;;;;10.85;7.10;;;;;;;;;;5055081;28;20398;-78
2022/11/19 07:21:16;;;;;;;10.73;7.20;;;;;;;;;;5084742;28;20471;-78
2022/11/19 07:23:42;;;;;;;10.52;7.03;;;;;;;;;;5102347;28;20472;-79
2022/11/19 07:26:08;;;;;;;11.90;8.25;;;;;;;;;;5075533;28;20452;-78
2022/11/19 07:28:35;;;;;;;11.57;7.53;;;;;;;;;;5090853;28;20776;-79
2022/11/19 07:31:05;;;;;;;10.82;7.43;;;;;;;;;;5083866;28;20440;-79
2022/11/19 07:33:31;;;;;;;10.57;7.45;;;;;;;;;;5085194;28;20420;-78
2022/11/19 07:35:57;;;;;;;12.25;7.82;;;;;;;;;;5092522;28;20425;-78
2022/11/19 07:38:24;;;;;;;10.60;7.60;;;;;;;;;;5087553;28;20454;-78
2022/11/19 07:40:56;;;;;;;11.25;7.43;;;;;;;;;;5087218;28;20404;-79
2022/11/19 07:43:22;;;;;;;10.00;7.17;;;;;;;;;;5084705;28;20834;-80
2022/11/19 07:45:48;;;;;;;11.00;7.30;;;;;;;;;;5106219;27;20421;-80
2022/11/19 07:48:15;;;;;;;11.93;7.72;;;;;;;;;;5080708;28;20440;-80
2022/11/19 07:50:41;;;;;;;10.30;7.75;;;;;;;;;;5082734;28;20416;-80
2022/11/19 07:53:07;;;;;;;12.57;7.75;;;;;;;;;;5078801;28;20454;-81
2022/11/19 07:55:33;;;;;;;12.38;8.52;;;;;;;;;;5083716;28;20455;-81
2022/11/19 07:57:59;;;;;;;11.23;8.17;;;;;;;;;;5076012;28;20429;-81
2022/11/19 08:00:25;;;;;;;12.73;8.43;;;;;;;;;;5083760;28;20766;-79
2022/11/19 08:02:51;;;;;;;12.50;8.25;;;;;;;;;;5071820;28;20434;-80
2022/11/19 08:05:18;;;;;;;11.00;8.00;;;;;;;;;;5066003;28;20930;-80
2022/11/19 08:07:44;;;;;;;11.27;7.80;;;;;;;;;;5094065;27;20420;-81
2022/11/19 08:10:10;;;;;;;11.65;8.38;;;;;;;;;;5082355;27;20507;-81
2022/11/19 08:12:36;;;;;;;12.48;8.15;;;;;;;;;;5085756;28;20422;-80
2022/11/19 08:15:03;;;;;;;11.82;8.40;;;;;;;;;;5068061;28;20445;-81
2022/11/19 08:20:16;;;;;;;11.57;8.52;;;;;;;;;;5089087;28;20421;-80
2022/11/19 08:22:42;;;;;;;13.30;8.70;;;;;;;;;;5092912;27;20498;-81
2022/11/19 08:25:08;;;;;;;11.32;8.10;;;;;;;;;;5081692;28;20421;-82
2022/11/19 08:27:34;;;;;;;12.03;8.30;;;;;;;;;;5082110;27;20489;-82
2022/11/19 08:30:00;;;;;;;11.10;8.20;;;;;;;;;;5085916;28;20427;-81
2022/11/19 08:32:26;;;;;;;11.67;8.47;;;;;;;;;;5088095;27;20396;-79
2022/11/19 08:34:52;;;;;;;11.98;8.75;;;;;;;;;;5075799;27;20418;-81
2022/11/19 08:37:19;;;;;;;11.43;8.73;;;;;;;;;;5081478;28;20430;-82
2022/11/19 08:39:45;;;;;;;12.68;8.50;;;;;;;;;;5045988;28;20543;-81
2022/11/19 08:44:55;;;;;;;11.25;8.68;;;;;;;;;;5067144;28;20417;-81
2022/11/19 08:47:22;;;;;;;12.45;8.98;;;;;;;;;;5065056;28;20424;-81
2022/11/19 08:49:48;;;;;;;11.43;8.20;;;;;;;;;;5069955;28;20935;-81
2022/11/19 08:52:14;;;;;;;13.48;8.85;;;;;;;;;;5061105;28;20425;-80
2022/11/19 08:54:40;;;;;;;11.77;8.73;;;;;;;;;;5060156;28;20917;-82
2022/11/19 08:57:06;;;;;;;12.05;8.65;;;;;;;;;;5069923;28;20776;-81
2022/11/19 08:59:32;;;;;;;11.87;8.63;;;;;;;;;;5064388;28;20429;-81
2022/11/19 09:01:58;;;;;;;11.75;8.45;;;;;;;;;;5065151;28;20409;-79
2022/11/19 09:04:24;;;;;;;11.87;8.70;;;;;;;;;;5069185;28;20514;-82
2022/11/19 09:06:50;;;;;;;12.05;8.38;;;;;;;;;;5064421;28;20473;-81
2022/11/19 09:09:16;;;;;;;12.03;8.57;;;;;;;;;;5064507;28;20448;-82
2022/11/19 09:11:43;;;;;;;11.82;9.13;;;;;;;;;;5074542;28;20429;-81
2022/11/19 09:14:09;;;;;;;11.20;8.40;;;;;;;;;;5078255;28;20466;-81
2022/11/19 09:16:35;;;;;;;11.02;9.02;;;;;;;;;;5054210;28;20505;-82
2022/11/19 09:19:01;;;;;;;11.45;8.80;;;;;;;;;;5058265;28;20535;-81
2022/11/19 09:21:27;;;;;;;13.25;8.40;;;;;;;;;;5063478;28;20446;-80
2022/11/19 09:23:53;;;;;;;11.45;8.63;;;;;;;;;;5062058;28;20445;-82
2022/11/19 09:26:19;;;;;;;11.02;8.30;;;;;;;;;;5061145;28;20431;-81
2022/11/19 09:28:45;;;;;;;11.85;8.30;;;;;;;;;;5042696;28;20504;-81
2022/11/19 09:31:13;;;;;;;11.77;8.38;;;;;;;;;;5045098;28;20917;-81
2022/11/19 09:33:44;;;;;;;11.90;7.90;;;;;;;;;;5038650;28;20427;-83
2022/11/19 09:36:11;;;;;;;12.05;8.18;;;;;;;;;;5038772;28;20504;-82
2022/11/19 09:38:39;;;;;;;11.23;8.27;;;;;;;;;;5090920;27;20780;-82
2022/11/19 09:41:12;;;;;;;10.23;7.63;;;;;;;;;;5093033;28;20434;-82
2022/11/19 09:43:41;;;;;;;10.07;7.43;;;;;;;;;;5089811;28;20427;-82
2022/11/19 09:46:11;;;;;;;9.90;7.65;;;;;;;;;;5064975;28;20422;-81
2022/11/19 09:48:38;;;;;;;10.88;8.43;;;;;;;;;;5078198;28;20424;-83
2022/11/19 09:51:10;;;;;;;10.07;7.88;;;;;;;;;;5075043;27;20770;-83
2022/11/19 09:53:47;;;;;;;11.95;8.48;;;;;;;;;;5076688;28;20423;-83
2022/11/19 09:56:16;;;;;;;10.75;7.75;;;;;;;;;;5060543;28;20549;-82
2022/11/19 09:58:44;;;;;;;9.77;7.72;;;;;;;;;;5083530;28;20414;-83
2022/11/19 10:01:17;;;;;;;10.48;7.43;;;;;;;;;;5076412;28;20414;-81
2022/11/19 10:03:48;;;;;;;11.03;7.53;;;;;;;;;;5082153;28;20501;-79
2022/11/19 10:06:14;;;;;;;10.27;6.93;;;;;;;;;;5078991;28;20473;-82
2022/11/19 10:09:01;;;;;;;9.30;6.80;;;;;;;;;;5075683;28;20422;-81
2022/11/19 10:11:30;;;;;;;9.50;7.25;;;;;;;;;;5074554;28;20420;-82
2022/11/19 10:14:03;;;;;;;9.70;7.15;;;;;;;;;;5057270;28;20418;-81
2022/11/19 10:16:29;;;;;;;9.18;7.07;;;;;;;;;;5062516;28;20428;-81
2022/11/19 10:19:12;;;;;;;9.77;7.28;;;;;;;;;;5060182;28;20507;-82
2022/11/19 10:21:45;;;;;;;7.90;6.07;;;;;;;;;;5063259;28;20422;-81
2022/11/19 10:24:16;;;;;;;11.10;6.97;;;;;;;;;;5054702;28;20469;-81
2022/11/19 10:26:44;;;;;;;8.90;6.82;;;;;;;;;;5074711;28;20486;-82
2022/11/19 10:29:19;;;;;;;9.52;6.80;;;;;;;;;;5084386;27;20830;-80
2022/11/19 10:31:46;;;;;;;9.13;6.77;;;;;;;;;;5076524;28;20842;-81
2022/11/19 10:34:22;;;;;;;9.52;6.22;;;;;;;;;;5078095;27;20436;-83
2022/11/19 10:37:07;;;;;;;9.25;6.32;;;;;;;;;;5077747;28;20425;-81
2022/11/19 10:39:38;;;;;;;9.70;6.30;;;;;;;;;;5079138;28;20417;-82
2022/11/19 10:42:13;;;;;;;9.35;6.38;;;;;;;;;;5067457;28;20855;-82
2022/11/19 10:44:46;;;;;;;8.73;6.28;;;;;;;;;;5083235;28;20905;-81
2022/11/19 10:47:25;;;;;;;9.70;6.38;;;;;;;;;;5067570;28;20950;-82
2022/11/19 10:49:55;;;;;;;9.88;6.60;;;;;;;;;;5088342;28;20430;-82
2022/11/19 10:52:39;;;;;;;8.00;5.78;;;;;;;;;;5088184;28;20421;-82
2022/11/19 10:55:17;;;;;;;8.25;6.13;;;;;;;;;;5096523;28;20416;-81
2022/11/19 10:57:43;;;;;;;8.27;5.65;;;;;;;;;;5105920;28;20454;-81
2022/11/19 11:00:10;;;;;;;8.48;6.22;;;;;;;;;;5086614;28;20450;-82
2022/11/19 11:02:36;;;;;;;9.25;6.05;;;;;;;;;;5084155;28;20418;-80
2022/11/19 11:05:13;;;;;;;8.98;5.90;;;;;;;;;;5063956;28;20424;-80
2022/11/19 11:07:45;;;;;;;8.82;5.88;;;;;;;;;;5080566;28;20918;-81
2022/11/19 11:10:24;;;;;;;7.80;5.93;;;;;;;;;;5079826;28;20446;-80
2022/11/19 11:15:43;;;;;;;8.73;5.95;;;;;;;;;;5083304;28;20421;-82
2022/11/19 11:18:10;;;;;;;8.32;5.45;;;;;;;;;;5092289;28;20455;-82
2022/11/19 11:20:38;;;;;;;7.65;5.57;;;;;;;;;;5088099;28;20409;-84
2022/11/19 11:23:11;;;;;;;7.55;5.47;;;;;;;;;;5088952;28;20899;-81
2022/11/19 11:25:39;;;;;;;8.17;5.57;;;;;;;;;;5076858;28;20425;-81
2022/11/19 11:28:06;;;;;;;7.35;5.07;;;;;;;;;;5060220;28;20421;-82
2022/11/19 11:30:33;;;;;;;7.88;5.47;;;;;;;;;;5085450;28;20496;-82
2022/11/19 11:33:19;;;;;;;7.18;5.18;;;;;;;;;;5076495;28;20421;-82
2022/11/19 11:35:45;;;;;;;7.28;5.00;;;;;;;;;;5070322;28;20766;-81
2022/11/19 11:38:11;;;;;;;6.32;5.00;;;;;;;;;;5076367;28;20905;-82
2022/11/19 11:40:37;;;;;;;7.13;5.03;;;;;;;;;;5052741;28;20417;-83
2022/11/19 11:43:03;;;;;;;7.00;5.22;;;;;;;;;;5084792;28;20508;-82
2022/11/19 11:45:34;;;;;;;8.05;5.45;;;;;;;;;;5090361;28;20763;-82
2022/11/19 11:48:20;;;;;;;11.10;5.45;;;;;;;;;;5091792;28;20825;-79
2022/11/19 11:50:46;;;;;;;8.23;5.63;;;;;;;;;;5068855;28;20449;-81
2022/11/19 11:53:14;;;;;;;8.32;5.88;;;;;;;;;;5084425;28;20493;-82
2022/11/19 11:55:40;;;;;;;7.25;5.47;;;;;;;;;;5061835;28;20419;-72
2022/11/19 11:58:23;;;;;;;7.57;5.50;;;;;;;;;;5072388;28;20471;-72
2022/11/19 12:00:52;;;;;;;7.70;5.50;;;;;;;;;;5076596;28;20422;-72
2022/11/19 12:03:18;;;;;;;7.10;5.30;;;;;;;;;;5065189;28;20428;-73
2022/11/19 12:05:51;;;;;;;7.10;4.82;;;;;;;;;;5069120;28;20467;-72
2022/11/19 12:08:23;;;;;;;7.22;5.20;;;;;;;;;;5080140;28;20455;-73
2022/11/19 12:10:55;;;;;;;8.30;5.50;;;;;;;;;;5074214;28;20766;-73
2022/11/19 12:13:24;;;;;;;7.13;5.40;;;;;;;;;;5086006;28;20439;-72
2022/11/19 12:16:07;;;;;;;7.25;5.30;;;;;;;;;;5061712;28;20807;-72
2022/11/19 12:18:36;;;;;;;7.38;5.10;;;;;;;;;;5078280;28;20457;-72
2022/11/19 12:21:15;;;;;;;7.90;5.27;;;;;;;;;;5087874;28;21004;-73
2022/11/19 12:23:56;;;;;;;7.38;5.00;;;;;;;;;;5064809;28;20422;-73
2022/11/19 12:26:41;;;;;;;7.88;4.78;;;;;;;;;;5078126;28;20427;-73
2022/11/19 12:29:07;;;;;;;6.20;4.70;;;;;;;;;;5086963;28;20432;-73
2022/11/19 12:31:48;;;;;;;7.23;5.10;;;;;;;;;;5080905;28;20466;-73
2022/11/19 12:34:14;;;;;;;8.82;5.03;;;;;;;;;;5077974;28;20516;-72
2022/11/19 12:36:59;;;;;;;7.60;5.50;;;;;;;;;;5084039;28;20420;-73
2022/11/19 12:39:37;;;;;;;7.82;5.43;;;;;;;;;;5083000;28;20429;-72
2022/11/19 12:42:22;;;;;;;7.18;5.43;;;;;;;;;;5081059;28;20416;-72
2022/11/19 12:45:00;;;;;;;8.32;5.05;;;;;;;;;;5069419;28;20472;-73
2022/11/19 12:47:50;;;;;;;8.32;5.40;;;;;;;;;;5074251;28;20423;-72
2022/11/19 12:50:19;;;;;;;8.15;5.45;;;;;;;;;;5043498;28;20480;-72
2022/11/19 12:53:00;;;;;;;7.50;5.27;;;;;;;;;;5077610;28;20514;-72
2022/11/19 12:55:49;;;;;;;7.15;5.13;;;;;;;;;;5085769;28;20422;-72
2022/11/19 12:58:16;;;;;;;7.20;5.03;;;;;;;;;;5071891;28;20430;-72
2022/11/19 13:00:51;;;;;;;8.23;5.80;;;;;;;;;;5066647;28;20507;-72
2022/11/19 13:03:24;;;;;;;7.78;5.40;;;;;;;;;;5078885;28;20444;-72
2022/11/19 13:05:56;;;;;;;8.38;5.28;;;;;;;;;;5077863;28;20438;-73
2022/11/19 13:08:41;;;;;;;7.03;5.32;;;;;;;;;;5073326;28;20420;-72
2022/11/19 13:11:35;;;;;;;8.60;5.40;;;;;;;;;;5082195;28;20452;-72
2022/11/19 13:14:04;;;;;;;7.50;5.20;;;;;;;;;;5075085;28;20424;-72
2022/11/19 13:16:32;;;;;;;7.57;5.25;;;;;;;;;;5075204;28;20427;-72
2022/11/19 13:19:06;;;;;;;8.90;5.40;;;;;;;;;;5074356;28;20456;-72
2022/11/19 13:21:45;;;;;;;7.17;5.00;;;;;;;;;;5072704;28;20411;-71
2022/11/19 13:24:31;;;;;;;8.13;5.47;;;;;;;;;;5078846;28;20812;-72
2022/11/19 13:26:59;;;;;;;9.18;5.75;;;;;;;;;;5063430;28;20426;-72
2022/11/19 13:29:25;;;;;;;8.32;5.53;;;;;;;;;;5074435;28;20427;-72
2022/11/19 13:31:54;;;;;;;8.55;5.70;;;;;;;;;;5072816;28;20429;-71
2022/11/19 13:34:26;;;;;;;8.77;5.32;;;;;;;;;;5067588;28;20453;-71
2022/11/19 13:36:55;;;;;;;8.75;5.40;;;;;;;;;;5076180;28;20445;-72
2022/11/19 13:39:26;;;;;;;9.63;5.83;;;;;;;;;;5088012;28;20519;-72
2022/11/19 13:44:37;;;;;;;8.40;5.32;;;;;;;;;;5089951;28;20519;-71
2022/11/19 13:47:07;;;;;;;8.90;5.70;;;;;;;;;;5085754;28;20421;-71
2022/11/19 13:49:36;;;;;;;8.00;5.30;;;;;;;;;;5082530;28;20483;-72
2022/11/19 13:52:08;;;;;;;7.67;5.10;;;;;;;;;;5083557;28;20412;-72
2022/11/19 13:54:36;;;;;;;10.10;5.95;;;;;;;;;;5081746;28;20425;-72
2022/11/19 13:57:03;;;;;;;8.23;5.30;;;;;;;;;;5055458;28;20433;-72
2022/11/19 13:59:32;;;;;;;7.70;5.38;;;;;;;;;;5082167;28;20392;-72
2022/11/19 14:02:04;;;;;;;7.97;5.60;;;;;;;;;;5075590;28;20918;-72
2022/11/19 14:04:33;;;;;;;8.07;5.33;;;;;;;;;;5082370;28;20891;-72
2022/11/19 14:07:02;;;;;;;9.85;6.13;;;;;;;;;;5084735;28;20423;-72
2022/11/19 14:09:28;;;;;;;9.82;6.72;;;;;;;;;;5086847;28;20416;-71
2022/11/19 14:12:09;;;;;;;7.93;5.57;;;;;;;;;;5073117;28;20971;-72
2022/11/19 14:26:45;;;;;;;17.85;12.00;;;;;;;;;;5078802;28;20495;-72
2022/11/19 14:29:18;;;;;;;12.35;7.72;;;;;;;;;;5040109;28;20422;-72
2022/11/19 14:32:02;;;;;;;9.07;5.93;;;;;;;;;;5089414;28;20428;-72
2022/11/19 14:34:33;;;;;;;8.70;5.53;;;;;;;;;;5082079;28;20416;-72
2022/11/19 14:37:02;;;;;;;8.85;5.10;;;;;;;;;;5076209;28;20417;-72
2022/11/19 14:39:30;;;;;;;7.40;4.53;;;;;;;;;;5079447;28;20472;-72
2022/11/19 14:42:15;;;;;;;8.47;4.97;;;;;;;;;;5082822;28;21000;-72
2022/11/19 14:44:44;;;;;;;7.53;5.10;;;;;;;;;;5080284;28;20408;-72
2022/11/19 14:47:31;;;;;;;7.70;4.80;;;;;;;;;;5083592;28;20429;-72
2022/11/19 14:49:58;;;;;;;9.35;5.07;;;;;;;;;;5067409;28;20427;-72
2022/11/19 14:52:26;;;;;;;7.13;4.78;;;;;;;;;;5080763;28;20428;-72
2022/11/19 14:54:57;;;;;;;8.00;5.00;;;;;;;;;;5087606;28;20420;-72
2022/11/19 14:57:32;;;;;;;7.88;5.00;;;;;;;;;;5075408;28;20422;-72
2022/11/19 15:00:00;;;;;;;7.50;4.83;;;;;;;;;;5076190;28;21881;-72
2022/11/19 15:02:31;;;;;;;8.40;5.30;;;;;;;;;;5077438;28;20421;-72
2022/11/19 15:05:15;;;;;;;8.60;5.28;;;;;;;;;;5077605;28;20417;-73
2022/11/19 15:07:44;;;;;;;7.22;5.10;;;;;;;;;;5077528;28;20432;-72
2022/11/19 15:10:13;;;;;;;8.10;5.20;;;;;;;;;;5068185;28;20976;-72
2022/11/19 15:12:42;;;;;;;7.47;5.00;;;;;;;;;;5077296;28;20425;-72
2022/11/19 15:15:23;;;;;;;8.82;5.47;;;;;;;;;;5078886;28;20421;-72
2022/11/19 15:17:49;;;;;;;9.63;5.60;;;;;;;;;;5085352;28;20435;-72
2022/11/19 15:20:21;;;;;;;9.38;6.03;;;;;;;;;;5066027;27;20913;-72
2022/11/19 15:23:08;;;;;;;10.40;6.10;;;;;;;;;;5084027;28;20420;-70
2022/11/19 15:25:39;;;;;;;8.82;5.63;;;;;;;;;;5084092;28;20418;-71
2022/11/19 15:28:05;;;;;;;8.98;5.90;;;;;;;;;;5084456;28;20422;-71
2022/11/19 15:30:50;;;;;;;10.30;6.22;;;;;;;;;;5080312;28;20521;-71
2022/11/19 15:33:22;;;;;;;10.27;6.18;;;;;;;;;;5086667;28;20424;-71